Gold Beach, OR (97444)

11:46 AM PDT on March 24, 2017 (GMT -0700)
KF7MWX | | Change Station

Elev 56 ft 42.41 °N, 124.42 °W | Updated 0 second ago

Mostly Cloudy
Mostly Cloudy
50.7 °F
Feels Like 50.7 °F
N
3.1
Wind Variable Wind from SE
Gusts 17.4 mph

Today
High -- | Low -- °F
--% Chance of Precip.
Yesterday
High -- | Low -- °F
Precip. -- in
Pressure 30.08 in
Visibility 5.0 miles
Clouds Scattered Clouds 1300 ft
Mostly Cloudy 1800 ft
Overcast 3400 ft
Dew Point 50 °F
Humidity 98%
Rainfall 0.00 in
Snow Depth Not available.
7:13 AM 7:34 PM
Waning Crescent, 13% visible
METAR KBOK 241756Z AUTO 13004KT 5SM RA BR SCT013 BKN018 OVC034 08/07 A3002 RMK AO2 RAB25 SLP184 P0002 60067 T00830072 10089 20072 53026
Pressure 30.08 in
Visibility 5.0 miles
Clouds Scattered Clouds 1300 ft
Mostly Cloudy 1800 ft
Overcast 3400 ft
Dew Point 50 °F
Humidity 98%
Rainfall 0.00 in
Snow Depth Not available.
7:13 AM 7:34 PM
Waning Crescent, 13% visible
METAR KBOK 241756Z AUTO 13004KT 5SM RA BR SCT013 BKN018 OVC034 08/07 A3002 RMK AO2 RAB25 SLP184 P0002 60067 T00830072 10089 20072 53026

Get Severe Weather Alerts

Thanks for signing up!

Be on the lookout for a verification email in your inbox.

You'll start receiving the daily forecast at 8 AM.

×

10-Day Weather Forecast

Almanac

Astronomy

Mar. 24, 2017 Rise Set
Actual Time
Civil Twilight
Nautical Twilight
Astronomical Twilight
Moon
Length of Visible Light
Length of Day
Tomorrow will be .
, % of the Moon is Illuminated

Today's Extremes

State Highs State Lows

Community

WunderPhotos

Upload Photos

1,962,540 photos uploaded!

WunderBlog® & News

Nearby

Air Quality

  Air Quality AQ Index Pollutant
Not available.

Snow Depth

Station Depth Elevation

Earthquake Activity

City Distance Mag. Time & Date
Minimum magnitude displayed is 2.5.

Earthquake Activity

City Distance Mag. Time & Date
Minimum magnitude displayed is 2.5.

Coastal Water Temperatures

Place Temperature

Stations

Nearby Weather Stations

Station Location Temp. Windchill Dew Point Humidity Wind Precip. Elev Updated Type
                   

Watches & Warnings

There are currently no watches in effect.